createdAt,value
2019-03-05T00:01:51.570Z,26.96
2019-03-05T00:04:17.847Z,27.63
2019-03-05T00:06:44.043Z,27.91
2019-03-05T00:09:12.181Z,27.92
2019-03-05T00:11:38.348Z,28.19
2019-03-05T00:14:04.644Z,29.10
2019-03-05T00:16:30.916Z,29.92
2019-03-05T00:18:57.128Z,29.41
2019-03-05T00:21:23.322Z,30.72
2019-03-05T00:23:52.488Z,29.97
2019-03-05T00:26:31.047Z,29.86
2019-03-05T00:29:23.825Z,30.73
2019-03-05T00:31:50.127Z,29.47
2019-03-05T00:34:23.171Z,30.24
2019-03-05T00:36:55.711Z,30.16
2019-03-05T00:39:34.709Z,29.35
2019-03-05T00:42:24.251Z,29.72
2019-03-05T00:44:59.957Z,30.53
2019-03-05T00:47:47.537Z,29.07
2019-03-05T00:50:23.255Z,30.13
2019-03-05T00:53:02.054Z,29.28
2019-03-05T00:55:40.688Z,29.46
2019-03-05T00:58:16.465Z,28.58
2019-03-05T01:00:52.090Z,28.02
2019-03-05T01:03:55.257Z,27.09
2019-03-05T01:06:25.494Z,27.29
2019-03-05T01:08:54.163Z,27.51
2019-03-05T01:11:21.284Z,27.90
2019-03-05T01:13:47.547Z,28.15
2019-03-05T01:16:15.814Z,27.38
2019-03-05T01:18:42.136Z,27.72
2019-03-05T01:21:08.413Z,27.48
2019-03-05T01:23:34.581Z,27.07
2019-03-05T01:26:00.779Z,27.13
2019-03-05T01:28:26.937Z,27.93
2019-03-05T01:30:55.011Z,27.69
2019-03-05T01:33:21.617Z,26.72
2019-03-05T01:36:06.303Z,26.89
2019-03-05T01:38:34.421Z,28.04
2019-03-05T01:41:02.497Z,28.17
2019-03-05T01:43:28.769Z,27.09
2019-03-05T01:45:54.965Z,28.42
2019-03-05T01:48:21.234Z,27.16
2019-03-05T01:50:47.396Z,26.80
2019-03-05T01:53:13.583Z,26.39
2019-03-05T01:55:39.760Z,26.95
2019-03-05T01:58:05.955Z,27.18
2019-03-05T02:00:32.344Z,29.00
2019-03-05T02:02:58.514Z,29.95
2019-03-05T02:05:24.696Z,27.43
2019-03-05T02:07:51.513Z,28.42
2019-03-05T02:10:20.967Z,27.97
2019-03-05T02:12:47.234Z,29.00
2019-03-05T02:15:13.933Z,29.72
2019-03-05T02:17:40.108Z,30.22
2019-03-05T02:20:09.885Z,30.44
2019-03-05T02:22:36.192Z,30.65
2019-03-05T02:25:26.753Z,30.38
2019-03-05T02:28:11.764Z,30.46
2019-03-05T02:31:07.406Z,30.83
2019-03-05T02:33:40.465Z,31.60
2019-03-05T02:36:19.247Z,31.02
2019-03-05T02:39:22.620Z,30.73
2019-03-05T02:41:58.467Z,31.11
2019-03-05T02:44:31.275Z,31.14
2019-03-05T02:47:23.647Z,31.48
2019-03-05T02:49:56.297Z,30.09
2019-03-05T02:52:47.473Z,31.15
2019-03-05T02:55:32.337Z,30.20
2019-03-05T02:57:58.089Z,29.23
2019-03-05T03:00:26.152Z,28.42
2019-03-05T03:02:54.256Z,29.83
2019-03-05T03:05:24.945Z,29.25
2019-03-05T03:07:51.113Z,30.11
2019-03-05T03:10:21.623Z,28.98
2019-03-05T03:12:48.063Z,29.71
2019-03-05T03:15:14.229Z,29.99
2019-03-05T03:17:40.539Z,28.67
2019-03-05T03:20:12.772Z,29.49
2019-03-05T03:22:39.044Z,29.57
2019-03-05T03:25:08.844Z,30.12
2019-03-05T03:27:35.013Z,30.10
2019-03-05T03:30:01.379Z,29.86
2019-03-05T03:32:27.585Z,29.65
2019-03-05T03:34:53.728Z,29.59
2019-03-05T03:37:19.890Z,29.33
2019-03-05T03:39:46.101Z,29.66
2019-03-05T03:42:12.260Z,29.89
2019-03-05T03:44:38.416Z,28.67
2019-03-05T03:47:04.614Z,29.58
2019-03-05T03:49:30.788Z,29.37
2019-03-05T03:51:57.046Z,28.51
2019-03-05T03:54:23.250Z,29.15
2019-03-05T03:56:49.614Z,29.72
2019-03-05T03:59:15.766Z,29.78
2019-03-05T04:01:41.969Z,28.83
2019-03-05T04:04:08.136Z,28.86
2019-03-05T04:06:34.306Z,28.26
2019-03-05T04:09:00.488Z,28.14
2019-03-05T04:11:26.656Z,28.04
2019-03-05T04:13:52.829Z,28.02
2019-03-05T04:16:19.063Z,28.67
2019-03-05T04:18:45.238Z,27.96
2019-03-05T04:21:11.504Z,27.21
2019-03-05T04:23:37.714Z,27.65
2019-03-05T04:26:03.871Z,27.92
2019-03-05T04:28:30.047Z,27.54
2019-03-05T04:30:56.401Z,27.14
2019-03-05T04:33:22.606Z,27.13
2019-03-05T04:35:48.756Z,27.14
2019-03-05T04:38:14.979Z,26.62
2019-03-05T04:40:41.131Z,27.32
2019-03-05T04:43:07.299Z,26.11
2019-03-05T04:45:40.395Z,26.56
2019-03-05T04:48:06.560Z,26.96
2019-03-05T04:50:34.624Z,26.72
2019-03-05T04:53:00.816Z,26.59
2019-03-05T04:55:26.980Z,26.89
2019-03-05T04:57:53.138Z,26.60
2019-03-05T05:00:19.538Z,25.58
2019-03-05T05:02:45.710Z,26.72
2019-03-05T05:05:11.871Z,26.11
2019-03-05T05:07:38.080Z,26.24
2019-03-05T05:10:06.660Z,27.26
2019-03-05T05:12:32.844Z,27.16
2019-03-05T05:14:59.042Z,27.62
2019-03-05T05:17:25.363Z,26.06
2019-03-05T05:19:51.597Z,27.25
2019-03-05T05:22:17.839Z,27.25
2019-03-05T05:24:44.004Z,27.26
2019-03-05T05:27:10.178Z,26.58
2019-03-05T05:29:36.382Z,27.14
2019-03-05T05:32:02.561Z,26.98
2019-03-05T05:34:28.739Z,25.11
2019-03-05T05:36:55.048Z,24.85
2019-03-05T05:39:58.212Z,24.91
2019-03-05T05:42:24.412Z,23.82
2019-03-05T05:44:50.686Z,23.20
2019-03-05T05:47:16.950Z,23.98
2019-03-05T05:49:43.144Z,24.12
2019-03-05T05:52:09.306Z,23.27
2019-03-05T05:54:35.567Z,23.42
2019-03-05T05:57:01.774Z,22.86
2019-03-05T05:59:27.928Z,22.19
2019-03-05T06:01:54.086Z,20.99
2019-03-05T06:04:20.295Z,21.28
2019-03-05T06:06:46.454Z,21.21
2019-03-05T06:09:12.719Z,21.76
2019-03-05T06:11:38.935Z,20.99
2019-03-05T06:14:05.095Z,21.08
2019-03-05T06:16:31.282Z,20.05
2019-03-05T06:18:58.523Z,19.82
2019-03-05T06:21:25.136Z,19.22
2019-03-05T06:23:51.291Z,19.81
2019-03-05T06:26:17.483Z,19.71
2019-03-05T06:28:43.644Z,20.14
2019-03-05T06:31:09.812Z,20.14
2019-03-05T06:33:36.007Z,20.56
2019-03-05T06:36:02.172Z,20.25
2019-03-05T06:38:28.332Z,20.00
2019-03-05T06:40:54.535Z,20.75
2019-03-05T06:43:20.807Z,20.39
2019-03-05T06:45:46.968Z,19.46
2019-03-05T06:48:13.156Z,18.12
2019-03-05T06:50:39.375Z,18.09
2019-03-05T06:53:05.682Z,17.60
2019-03-05T06:55:31.914Z,17.33
2019-03-05T06:57:58.036Z,17.91
2019-03-05T07:00:30.153Z,17.32
2019-03-05T07:02:56.446Z,16.37
2019-03-05T07:06:00.055Z,17.73
2019-03-05T07:08:26.250Z,18.29
2019-03-05T07:11:11.389Z,18.35
2019-03-05T07:13:37.601Z,17.56
2019-03-05T07:16:16.565Z,18.06
2019-03-05T07:18:45.755Z,17.85
2019-03-05T07:21:32.127Z,18.54
2019-03-05T07:24:20.080Z,20.32
2019-03-05T07:26:46.340Z,19.93
2019-03-05T07:29:12.495Z,20.50
2019-03-05T07:31:38.798Z,19.96
2019-03-05T07:34:07.017Z,19.89
2019-03-05T07:36:33.180Z,20.66
2019-03-05T07:38:59.500Z,22.16
2019-03-05T07:41:25.661Z,22.17
2019-03-05T07:43:51.820Z,22.48
2019-03-05T07:46:18.011Z,22.84
2019-03-05T07:48:44.177Z,22.60
2019-03-05T07:51:10.338Z,20.92
2019-03-05T07:53:36.541Z,18.93
2019-03-05T07:56:02.901Z,18.98
2019-03-05T07:58:29.061Z,17.60
2019-03-05T08:00:55.252Z,17.72
2019-03-05T08:03:21.409Z,18.12
2019-03-05T08:05:47.760Z,18.30
2019-03-05T08:08:51.196Z,18.14
2019-03-05T08:11:17.361Z,19.00
2019-03-05T08:14:05.501Z,19.66
2019-03-05T08:16:31.761Z,18.43
2019-03-05T08:18:57.928Z,17.69
2019-03-05T08:21:24.137Z,17.61
2019-03-05T08:23:50.298Z,18.28
2019-03-05T08:26:16.457Z,18.16
2019-03-05T08:28:42.756Z,17.42
2019-03-05T08:31:09.215Z,19.17
2019-03-05T08:33:35.376Z,17.90
2019-03-05T08:36:01.582Z,16.90
2019-03-05T08:38:27.748Z,16.48
2019-03-05T08:40:54.385Z,15.88
2019-03-05T08:43:20.577Z,16.06
2019-03-05T08:45:46.805Z,15.72
2019-03-05T08:48:12.989Z,15.94
2019-03-05T08:50:39.201Z,15.54
2019-03-05T08:53:05.355Z,15.32
2019-03-05T08:55:31.525Z,16.10
2019-03-05T08:57:57.696Z,15.59
2019-03-05T09:00:23.851Z,15.64
2019-03-05T09:02:50.016Z,15.29
2019-03-05T09:05:18.110Z,15.29
2019-03-05T09:07:44.771Z,15.75
2019-03-05T09:10:18.329Z,14.57
2019-03-05T09:12:44.628Z,14.99
2019-03-05T09:15:16.836Z,16.66
2019-03-05T09:17:43.195Z,16.27
2019-03-05T09:20:12.391Z,17.00
2019-03-05T09:22:39.037Z,16.93
2019-03-05T09:25:12.233Z,16.04
2019-03-05T09:27:38.526Z,16.79
2019-03-05T09:30:22.073Z,15.78
2019-03-05T09:32:48.676Z,16.28
2019-03-05T09:35:15.860Z,16.17
2019-03-05T09:37:42.316Z,15.73
2019-03-05T09:40:11.728Z,16.11
2019-03-05T09:42:40.139Z,15.67
2019-03-05T09:45:09.655Z,16.11
2019-03-05T09:47:35.988Z,15.80
2019-03-05T09:50:05.151Z,15.29
2019-03-05T09:52:31.314Z,15.86
2019-03-05T09:54:57.619Z,14.95
2019-03-05T09:57:23.887Z,15.26
2019-03-05T09:59:50.149Z,16.00
2019-03-05T10:02:16.355Z,15.39
2019-03-05T10:04:42.622Z,16.18
2019-03-05T10:07:18.494Z,15.38
2019-03-05T10:09:36.967Z,13.81
2019-03-05T10:12:03.133Z,14.88
2019-03-05T10:14:29.403Z,16.27
2019-03-05T10:16:55.612Z,15.95
2019-03-05T10:19:21.770Z,16.93
2019-03-05T10:21:48.176Z,15.84
2019-03-05T10:24:14.476Z,16.78
2019-03-05T10:26:40.695Z,16.04
2019-03-05T10:29:06.987Z,15.90
2019-03-05T10:31:33.418Z,14.95
2019-03-05T10:33:59.570Z,15.57
2019-03-05T10:36:25.741Z,15.78
2019-03-05T10:38:57.163Z,16.87
2019-03-05T10:41:20.115Z,16.00
2019-03-05T10:43:46.271Z,15.59
2019-03-05T10:46:12.981Z,14.36
2019-03-05T10:48:39.141Z,14.99
2019-03-05T10:51:05.304Z,15.37
2019-03-05T10:53:32.201Z,15.32
2019-03-05T10:55:58.368Z,16.19
2019-03-05T10:58:33.426Z,16.46
2019-03-05T11:00:54.595Z,15.37
2019-03-05T11:03:23.471Z,14.63
2019-03-05T11:05:50.928Z,15.64
2019-03-05T11:08:19.222Z,15.35
2019-03-05T11:10:45.485Z,14.51
2019-03-05T11:13:12.043Z,16.97
2019-03-05T11:15:38.843Z,17.25
2019-03-05T11:18:06.704Z,17.05
2019-03-05T11:20:33.379Z,18.31
2019-03-05T11:22:59.574Z,17.57
2019-03-05T11:25:25.857Z,17.56
2019-03-05T11:27:52.019Z,17.96
2019-03-05T11:30:35.325Z,16.08
2019-03-05T11:32:52.289Z,16.30
2019-03-05T11:35:21.455Z,15.88
2019-03-05T11:37:47.762Z,16.49
2019-03-05T11:40:21.220Z,15.84
2019-03-05T11:42:48.495Z,16.80
2019-03-05T11:45:50.165Z,17.43
2019-03-05T11:48:16.437Z,16.11
2019-03-05T11:50:43.104Z,18.50
2019-03-05T11:53:09.302Z,17.87
2019-03-05T11:55:35.449Z,18.42
2019-03-05T11:58:01.617Z,18.08
2019-03-05T12:00:47.478Z,18.00
2019-03-05T12:03:13.744Z,17.45
2019-03-05T12:05:39.919Z,18.41
2019-03-05T12:08:06.118Z,17.54
2019-03-05T12:10:32.277Z,16.83
2019-03-05T12:12:58.443Z,17.92
2019-03-05T12:15:26.848Z,18.07
2019-03-05T12:17:53.000Z,17.03
2019-03-05T12:20:19.156Z,17.98
2019-03-05T12:22:45.344Z,18.33
2019-03-05T12:25:17.632Z,18.16
2019-03-05T12:27:44.094Z,18.25
2019-03-05T12:30:13.954Z,18.44
2019-03-05T12:32:40.107Z,19.53
2019-03-05T12:35:08.574Z,19.33
2019-03-05T12:37:34.774Z,19.07
2019-03-05T12:40:00.941Z,18.56
2019-03-05T12:42:27.217Z,18.16
2019-03-05T12:44:53.410Z,17.87
2019-03-05T12:47:19.582Z,17.13
2019-03-05T12:49:45.841Z,16.89
2019-03-05T12:52:12.036Z,16.71
2019-03-05T12:54:38.205Z,17.69
2019-03-05T12:57:04.486Z,18.21
2019-03-05T12:59:30.673Z,17.79
2019-03-05T13:01:56.832Z,18.26
2019-03-05T13:04:22.998Z,19.25
2019-03-05T13:06:49.196Z,17.04
2019-03-05T13:09:17.876Z,18.18
2019-03-05T13:11:46.594Z,18.21
2019-03-05T13:14:12.357Z,17.71
2019-03-05T13:16:39.447Z,17.80
2019-03-05T13:19:09.517Z,16.80
2019-03-05T13:21:34.947Z,17.09
2019-03-05T13:24:01.104Z,17.49
2019-03-05T13:26:27.268Z,18.65
2019-03-05T13:28:53.472Z,17.90
2019-03-05T13:31:19.782Z,18.26
2019-03-05T13:33:45.935Z,18.08
2019-03-05T13:36:13.466Z,17.60
2019-03-05T13:38:41.835Z,18.56
2019-03-05T13:41:07.869Z,19.86
2019-03-05T13:43:34.058Z,20.35
2019-03-05T13:46:00.213Z,18.91
2019-03-05T13:48:32.986Z,19.98
2019-03-05T13:51:19.528Z,20.82
2019-03-05T13:54:00.959Z,20.74
2019-03-05T13:56:55.655Z,19.54
2019-03-05T13:59:41.907Z,20.72
2019-03-05T14:02:08.503Z,19.42
2019-03-05T14:04:38.269Z,20.29
2019-03-05T14:07:23.354Z,21.79
2019-03-05T14:09:50.579Z,20.72
2019-03-05T14:12:16.793Z,20.65
2019-03-05T14:14:43.035Z,20.98
2019-03-05T14:17:13.767Z,21.86
2019-03-05T14:19:39.924Z,21.86
2019-03-05T14:22:06.247Z,21.71
2019-03-05T14:24:34.383Z,22.55
2019-03-05T14:27:00.908Z,22.74
2019-03-05T14:29:29.291Z,23.07
2019-03-05T14:31:56.355Z,23.31
2019-03-05T14:34:22.615Z,21.78
2019-03-05T14:36:48.857Z,21.93
2019-03-05T14:39:25.997Z,22.54
2019-03-05T14:41:52.315Z,22.57
2019-03-05T14:44:18.541Z,21.71
2019-03-05T14:46:49.130Z,21.42
2019-03-05T14:49:15.329Z,21.83
2019-03-05T14:51:41.483Z,21.26
2019-03-05T14:54:07.650Z,21.60
2019-03-05T14:56:33.955Z,21.83
2019-03-05T14:59:00.125Z,21.98
2019-03-05T15:01:26.253Z,22.41
2019-03-05T15:03:52.455Z,23.36
2019-03-05T15:06:18.825Z,22.52
2019-03-05T15:08:44.987Z,22.33
2019-03-05T15:11:11.321Z,21.73
2019-03-05T15:13:37.623Z,22.50
2019-03-05T15:16:03.877Z,21.61
2019-03-05T15:18:30.118Z,22.04
2019-03-05T15:20:56.303Z,22.46
2019-03-05T15:23:22.477Z,22.18
2019-03-05T15:25:49.100Z,23.72
2019-03-05T15:28:15.268Z,22.83
2019-03-05T15:30:41.587Z,23.33
2019-03-05T15:33:08.779Z,23.52
2019-03-05T15:35:34.945Z,22.79
2019-03-05T15:38:01.119Z,22.11
2019-03-05T15:40:27.687Z,21.97
2019-03-05T15:42:53.850Z,22.69
2019-03-05T15:45:21.503Z,23.65
2019-03-05T15:47:47.706Z,23.55
2019-03-05T15:50:15.963Z,24.21
2019-03-05T15:52:44.156Z,23.97
2019-03-05T15:55:14.548Z,24.00
2019-03-05T15:57:40.710Z,24.43
2019-03-05T16:00:28.852Z,25.25
2019-03-05T16:02:55.069Z,25.63
2019-03-05T16:05:22.126Z,25.40
2019-03-05T16:07:49.305Z,24.68
2019-03-05T16:10:17.218Z,24.83
2019-03-05T16:12:44.450Z,25.45
2019-03-05T16:15:12.442Z,24.98
2019-03-05T16:17:38.597Z,24.86
2019-03-05T16:20:07.961Z,25.48
2019-03-05T16:22:34.162Z,24.25
2019-03-05T16:25:00.319Z,25.14
2019-03-05T16:27:30.072Z,24.47
2019-03-05T16:29:55.715Z,24.01
2019-03-05T16:32:33.500Z,23.90
2019-03-05T16:35:13.649Z,24.59
2019-03-05T16:37:57.730Z,23.95
2019-03-05T16:40:28.928Z,23.94
2019-03-05T16:42:57.011Z,23.37
2019-03-05T16:45:30.723Z,24.04
2019-03-05T16:48:10.560Z,23.82
2019-03-05T16:50:47.746Z,24.62
2019-03-05T16:53:24.654Z,24.46
2019-03-05T16:56:01.326Z,23.98
2019-03-05T17:01:29.090Z,24.09
2019-03-05T17:03:59.974Z,23.51
2019-03-05T17:06:44.856Z,23.12
2019-03-05T17:09:15.961Z,23.13
2019-03-05T17:11:55.673Z,23.11
2019-03-05T17:14:21.832Z,23.49
2019-03-05T17:16:48.089Z,23.73
2019-03-05T17:19:14.393Z,24.15
2019-03-05T17:21:40.553Z,24.26
2019-03-05T17:24:06.748Z,24.29
2019-03-05T17:26:32.935Z,24.59
2019-03-05T17:28:59.092Z,24.39
2019-03-05T17:31:25.243Z,24.68
2019-03-05T17:33:51.450Z,24.82
2019-03-05T17:36:18.104Z,24.94
2019-03-05T17:38:44.262Z,25.03
2019-03-05T17:41:10.453Z,27.26
2019-03-05T17:43:39.387Z,26.31
2019-03-05T17:46:05.670Z,25.98
2019-03-05T17:48:31.856Z,26.90
2019-03-05T17:50:58.011Z,25.99
2019-03-05T17:53:24.170Z,25.59
2019-03-05T17:55:50.363Z,26.57
2019-03-05T17:58:16.547Z,28.30
2019-03-05T18:00:44.611Z,27.70
2019-03-05T18:03:10.809Z,28.18
2019-03-05T18:05:36.967Z,28.40
2019-03-05T18:08:03.624Z,28.32
2019-03-05T18:10:29.870Z,28.79
2019-03-05T18:12:56.027Z,29.71
2019-03-05T18:15:22.203Z,29.76
2019-03-05T18:17:48.494Z,28.48
2019-03-05T18:20:19.491Z,28.14
2019-03-05T18:22:45.953Z,28.81
2019-03-05T18:25:14.148Z,29.62
2019-03-05T18:27:40.733Z,28.53
2019-03-05T18:30:19.735Z,28.38
2019-03-05T18:32:46.074Z,29.37
2019-03-05T18:35:12.947Z,30.37
2019-03-05T18:37:39.248Z,29.12
2019-03-05T18:40:11.423Z,30.65
2019-03-05T18:42:37.580Z,30.04
2019-03-05T18:45:07.362Z,30.07
2019-03-05T18:47:33.977Z,32.04
2019-03-05T18:50:00.287Z,33.46
2019-03-05T18:52:26.530Z,32.66
2019-03-05T18:54:52.699Z,33.79
2019-03-05T18:57:18.846Z,32.15
2019-03-05T18:59:45.039Z,32.99
2019-03-05T19:02:11.413Z,33.20
2019-03-05T19:04:37.582Z,34.45
2019-03-05T19:07:03.895Z,34.85
2019-03-05T19:09:30.054Z,34.08
2019-03-05T19:11:56.332Z,36.40
2019-03-05T19:14:22.653Z,34.70
2019-03-05T19:16:48.809Z,34.11
2019-03-05T19:19:14.976Z,35.55
2019-03-05T19:21:41.177Z,35.67
2019-03-05T19:24:07.344Z,35.89
2019-03-05T19:26:33.507Z,34.58
2019-03-05T19:28:59.724Z,34.33
2019-03-05T19:31:25.887Z,35.54
2019-03-05T19:33:52.041Z,35.14
2019-03-05T19:36:18.237Z,33.99
2019-03-05T19:38:44.455Z,34.80
2019-03-05T19:41:10.712Z,34.41
2019-03-05T19:43:37.014Z,35.90
2019-03-05T19:46:03.277Z,35.31
2019-03-05T19:48:29.442Z,36.71
2019-03-05T19:50:55.750Z,38.46
2019-03-05T19:53:21.910Z,38.38
2019-03-05T19:55:48.181Z,38.69
2019-03-05T19:58:14.395Z,39.46
2019-03-05T20:00:54.352Z,40.28
2019-03-05T20:03:20.560Z,39.57
2019-03-05T20:05:46.716Z,38.24
2019-03-05T20:08:12.884Z,38.19
2019-03-05T20:10:39.083Z,36.74
2019-03-05T20:13:05.247Z,37.87
2019-03-05T20:15:31.416Z,37.82
2019-03-05T20:17:59.113Z,38.08
2019-03-05T20:20:25.605Z,36.81
2019-03-05T20:22:51.974Z,36.68
2019-03-05T20:25:19.749Z,36.93
2019-03-05T20:27:47.816Z,37.00
2019-03-05T20:30:16.489Z,37.79
2019-03-05T20:32:42.782Z,36.71
2019-03-05T20:35:08.948Z,36.38
2019-03-05T20:37:35.108Z,36.73
2019-03-05T20:40:02.833Z,36.45
2019-03-05T20:42:29.317Z,35.63
2019-03-05T20:44:55.485Z,36.74
2019-03-05T20:47:21.790Z,36.61
2019-03-05T20:49:47.955Z,36.33
2019-03-05T20:52:14.124Z,35.18
2019-03-05T20:54:40.328Z,35.48
2019-03-05T20:57:06.589Z,35.69
2019-03-05T20:59:33.053Z,32.65
2019-03-05T21:01:59.359Z,34.26
2019-03-05T21:04:25.535Z,35.78
2019-03-05T21:06:51.698Z,34.70
2019-03-05T21:09:19.499Z,34.80
2019-03-05T21:11:45.672Z,36.17
2019-03-05T21:14:12.335Z,35.70
2019-03-05T21:16:38.547Z,34.07
2019-03-05T21:19:04.716Z,35.67
2019-03-05T21:21:30.892Z,35.20
2019-03-05T21:23:57.193Z,33.57
2019-03-05T21:26:23.353Z,34.88
2019-03-05T21:28:50.326Z,34.91
2019-03-05T21:31:16.545Z,34.59
2019-03-05T21:33:42.722Z,34.86
2019-03-05T21:36:08.880Z,35.72
2019-03-05T21:38:35.086Z,35.73
2019-03-05T21:41:01.462Z,35.50
2019-03-05T21:43:28.028Z,35.13
2019-03-05T21:45:57.831Z,34.21
2019-03-05T21:48:23.995Z,36.03
2019-03-05T21:50:50.156Z,35.70
2019-03-05T21:53:16.439Z,34.43
2019-03-05T21:55:42.696Z,35.20
2019-03-05T21:58:10.071Z,35.11
2019-03-05T22:00:38.083Z,34.79
2019-03-05T22:03:04.749Z,34.33
2019-03-05T22:05:30.915Z,34.18
2019-03-05T22:07:57.100Z,35.28
2019-03-05T22:10:23.268Z,35.24
2019-03-05T22:12:49.945Z,36.24
2019-03-05T22:15:18.639Z,36.88
2019-03-05T22:17:44.789Z,37.69
2019-03-05T22:20:13.560Z,37.25
2019-03-05T22:22:39.772Z,35.63
2019-03-05T22:25:09.227Z,37.59
2019-03-05T22:27:35.504Z,37.42
2019-03-05T22:30:02.210Z,36.61
2019-03-05T22:32:28.375Z,36.65
2019-03-05T22:34:54.647Z,36.44
2019-03-05T22:37:21.820Z,37.71
2019-03-05T22:39:47.985Z,37.48
2019-03-05T22:42:14.504Z,38.99
2019-03-05T22:44:40.702Z,40.63
2019-03-05T22:47:06.885Z,41.38
2019-03-05T22:49:33.051Z,40.58
2019-03-05T22:51:59.258Z,41.71
2019-03-05T22:54:25.431Z,41.38
2019-03-05T22:56:51.614Z,42.55
2019-03-05T22:59:17.812Z,42.63
2019-03-05T23:01:44.590Z,42.64
2019-03-05T23:04:10.956Z,42.03
2019-03-05T23:06:37.554Z,44.52
2019-03-05T23:09:06.824Z,42.64
2019-03-05T23:11:32.988Z,41.58
2019-03-05T23:13:59.197Z,42.32
2019-03-05T23:16:25.471Z,41.38
2019-03-05T23:18:51.628Z,41.58
2019-03-05T23:21:17.939Z,40.40
2019-03-05T23:23:44.113Z,42.17
2019-03-05T23:26:11.079Z,42.75
2019-03-05T23:28:37.579Z,40.98
2019-03-05T23:31:03.946Z,40.70
2019-03-05T23:33:30.108Z,41.82
2019-03-05T23:35:56.313Z,39.51
2019-03-05T23:38:22.584Z,39.09
2019-03-05T23:40:48.847Z,41.18
2019-03-05T23:43:15.082Z,44.09
2019-03-05T23:45:41.246Z,41.85
2019-03-05T23:48:07.409Z,41.92
2019-03-05T23:50:33.599Z,42.74
2019-03-05T23:52:59.768Z,43.01
2019-03-05T23:55:26.326Z,42.94
2019-03-05T23:57:52.537Z,40.78
